AFR3112 LFPG-KJFK
Flight info
| Callsign | AFR3112 |
|---|---|
| Flight time | N/A |
| Altitude | 34000 |
| Route | ELCOB UT300 SENLO DCT JSY DCT LIZAD DCT LULOX DCT LIMRI/M083F350 NATE JOOPY/N0469F360 N328A TUSKY DCT PLYMM PARCH4 |
| Aircraft | B77W/H-SDE1E2E3FGHIJ2J3J4J5M1RWXY/LB1D1 |
Departure
| Time | 2026-05-01 10:49 |
|---|---|
| Airport | Charles de Gaulle International Airport (LFPG) |
Arrival
| Time | N/A |
|---|---|
| Airport | John F. Kennedy International Airport (KJFK) |
| Time | Latitude | Longitude | Altitude | Speed | Heading |
|---|---|---|---|---|---|
| 2026-05-01 09:46 | 49.00138 | 2.57724 | 336 ft | 0 kts | 356° |
| 2026-05-01 10:36 | 49.00134 | 2.57724 | 335 ft | 2 kts | 355° |
| 2026-05-01 10:36 | 49.00119 | 2.57726 | 335 ft | 2 kts | 354° |
| 2026-05-01 10:37 | 49.00104 | 2.57729 | 335 ft | 2 kts | 356° |
| 2026-05-01 10:37 | 49.00075 | 2.57725 | 335 ft | 2 kts | 33° |
| 2026-05-01 10:37 | 49.00064 | 2.57710 | 335 ft | 2 kts | 58° |
| 2026-05-01 10:38 | 49.00059 | 2.57690 | 336 ft | 1 kts | 82° |
| 2026-05-01 10:38 | 49.00058 | 2.57681 | 336 ft | 1 kts | 87° |
| 2026-05-01 10:38 | 49.00058 | 2.57680 | 336 ft | 0 kts | 87° |
| 2026-05-01 10:41 | 49.00058 | 2.57681 | 336 ft | 0 kts | 89° |
| 2026-05-01 10:41 | 49.00039 | 2.57713 | 335 ft | 5 kts | 153° |
| 2026-05-01 10:42 | 48.99999 | 2.57705 | 335 ft | 7 kts | 220° |
| 2026-05-01 10:42 | 48.99976 | 2.57628 | 336 ft | 9 kts | 256° |
| 2026-05-01 10:42 | 48.99968 | 2.57527 | 335 ft | 9 kts | 269° |
| 2026-05-01 10:42 | 48.99964 | 2.57410 | 335 ft | 12 kts | 269° |
| 2026-05-01 10:43 | 48.99956 | 2.57270 | 335 ft | 14 kts | 263° |
| 2026-05-01 10:43 | 48.99946 | 2.57113 | 335 ft | 15 kts | 267° |
| 2026-05-01 10:43 | 48.99940 | 2.56939 | 336 ft | 16 kts | 264° |
| 2026-05-01 10:43 | 48.99927 | 2.56759 | 336 ft | 17 kts | 261° |
| 2026-05-01 10:44 | 48.99920 | 2.56635 | 336 ft | 18 kts | 268° |
| 2026-05-01 10:44 | 48.99915 | 2.56500 | 336 ft | 19 kts | 268° |
| 2026-05-01 10:44 | 48.99903 | 2.56301 | 336 ft | 19 kts | 264° |
| 2026-05-01 10:44 | 48.99894 | 2.56091 | 337 ft | 19 kts | 266° |
| 2026-05-01 10:45 | 48.99897 | 2.55880 | 337 ft | 19 kts | 265° |
| 2026-05-01 10:45 | 48.99806 | 2.55809 | 336 ft | 15 kts | 174° |
| 2026-05-01 10:45 | 48.99738 | 2.55811 | 336 ft | 0 kts | 179° |
| 2026-05-01 10:47 | 48.99734 | 2.55811 | 336 ft | 1 kts | 178° |
| 2026-05-01 10:47 | 48.99709 | 2.55812 | 336 ft | 5 kts | 181° |
| 2026-05-01 10:47 | 48.99666 | 2.55816 | 336 ft | 6 kts | 177° |
| 2026-05-01 10:47 | 48.99619 | 2.55834 | 335 ft | 6 kts | 147° |
| 2026-05-01 10:48 | 48.99602 | 2.55879 | 335 ft | 0 kts | 89° |
| 2026-05-01 10:48 | 48.99607 | 2.56010 | 335 ft | 45 kts | 86° |
| 2026-05-01 10:48 | 48.99659 | 2.56947 | 333 ft | 130 kts | 87° |
| 2026-05-01 10:48 | 48.99757 | 2.58698 | 388 ft | 197 kts | 84° |
| 2026-05-01 10:49 | 48.99981 | 2.60895 | 1004 ft | 221 kts | 84° |
| 2026-05-01 10:49 | 49.00055 | 2.63084 | 1995 ft | 209 kts | 92° |
| 2026-05-01 10:49 | 49.00106 | 2.65364 | 2383 ft | 226 kts | 90° |
| 2026-05-01 10:49 | 49.00220 | 2.67831 | 2811 ft | 241 kts | 86° |
| 2026-05-01 10:50 | 49.00360 | 2.70384 | 3522 ft | 244 kts | 86° |
| 2026-05-01 10:50 | 49.00554 | 2.72835 | 4460 ft | 234 kts | 81° |
| 2026-05-01 10:50 | 49.00869 | 2.75260 | 5121 ft | 238 kts | 84° |
| 2026-05-01 10:50 | 49.00898 | 2.77841 | 5542 ft | 250 kts | 96° |
| 2026-05-01 10:51 | 49.00370 | 2.80339 | 6188 ft | 249 kts | 124° |
| 2026-05-01 10:51 | 48.99189 | 2.82136 | 7007 ft | 241 kts | 149° |
| 2026-05-01 10:51 | 48.97620 | 2.82957 | 7522 ft | 250 kts | 179° |
| 2026-05-01 10:51 | 48.95860 | 2.82470 | 7969 ft | 264 kts | 201° |
| 2026-05-01 10:52 | 48.94294 | 2.81015 | 8706 ft | 268 kts | 221° |
| 2026-05-01 10:52 | 48.93115 | 2.78728 | 9092 ft | 286 kts | 239° |
| 2026-05-01 10:52 | 48.92210 | 2.76073 | 9881 ft | 286 kts | 242° |
| 2026-05-01 10:52 | 48.91322 | 2.73366 | 10543 ft | 292 kts | 242° |
| 2026-05-01 10:53 | 48.90402 | 2.70557 | 11133 ft | 300 kts | 242° |
| 2026-05-01 10:53 | 48.89479 | 2.67755 | 11890 ft | 300 kts | 240° |
| 2026-05-01 10:53 | 48.88555 | 2.64935 | 12678 ft | 298 kts | 242° |
| 2026-05-01 10:53 | 48.87719 | 2.62030 | 13207 ft | 307 kts | 243° |
| 2026-05-01 10:54 | 48.86859 | 2.59024 | 13669 ft | 319 kts | 245° |
| 2026-05-01 10:54 | 48.86043 | 2.55859 | 14348 ft | 322 kts | 247° |
| 2026-05-01 10:54 | 48.85294 | 2.52706 | 15195 ft | 317 kts | 244° |
| 2026-05-01 10:54 | 48.84463 | 2.49672 | 15896 ft | 317 kts | 244° |
| 2026-05-01 10:55 | 48.83688 | 2.46452 | 16357 ft | 329 kts | 246° |
| 2026-05-01 10:55 | 48.82919 | 2.43229 | 17093 ft | 323 kts | 240° |
| 2026-05-01 10:55 | 48.81882 | 2.40288 | 17697 ft | 323 kts | 236° |
| 2026-05-01 10:55 | 48.81095 | 2.36999 | 18058 ft | 342 kts | 259° |
| 2026-05-01 10:56 | 48.81032 | 2.33377 | 18631 ft | 350 kts | 273° |
| 2026-05-01 10:56 | 48.81598 | 2.29789 | 19178 ft | 360 kts | 288° |
| 2026-05-01 10:56 | 48.82497 | 2.26182 | 19413 ft | 374 kts | 287° |
| 2026-05-01 10:56 | 48.83376 | 2.22368 | 19538 ft | 391 kts | 285° |
| 2026-05-01 10:57 | 48.84243 | 2.18338 | 19628 ft | 409 kts | 285° |
| 2026-05-01 10:57 | 48.85119 | 2.14146 | 19734 ft | 427 kts | 285° |
| 2026-05-01 10:57 | 48.86044 | 2.09784 | 19910 ft | 442 kts | 287° |
| 2026-05-01 10:57 | 48.86233 | 2.08990 | 19988 ft | 444 kts | 289° |
| 2026-05-01 10:58 | 48.87032 | 2.06089 | 20496 ft | 442 kts | 292° |
| 2026-05-01 10:58 | 48.88145 | 2.01889 | 21882 ft | 425 kts | 289° |
| 2026-05-01 10:59 | 48.89138 | 1.97660 | 22558 ft | 420 kts | 281° |
| 2026-05-01 10:59 | 48.89628 | 1.93350 | 22982 ft | 425 kts | 276° |
| 2026-05-01 10:59 | 48.90172 | 1.88821 | 22908 ft | 446 kts | 281° |
| 2026-05-01 10:59 | 48.91036 | 1.84199 | 22993 ft | 462 kts | 285° |
| 2026-05-01 11:00 | 48.91987 | 1.79488 | 23399 ft | 469 kts | 285° |
| 2026-05-01 11:00 | 48.92936 | 1.74755 | 24105 ft | 468 kts | 285° |
| 2026-05-01 11:00 | 48.93556 | 1.71642 | 24552 ft | 468 kts | 284° |
| 2026-05-01 11:00 | 48.94490 | 1.66924 | 25008 ft | 473 kts | 284° |
| 2026-05-01 11:01 | 48.95443 | 1.62075 | 25352 ft | 480 kts | 284° |
| 2026-05-01 11:01 | 48.96388 | 1.57245 | 25771 ft | 485 kts | 284° |
| 2026-05-01 11:01 | 48.97351 | 1.52300 | 26337 ft | 486 kts | 284° |
| 2026-05-01 11:01 | 48.98305 | 1.47387 | 26880 ft | 488 kts | 284° |
| 2026-05-01 11:02 | 48.99257 | 1.42465 | 27328 ft | 491 kts | 284° |
| 2026-05-01 11:02 | 49.00216 | 1.37490 | 27738 ft | 496 kts | 284° |
| 2026-05-01 11:02 | 49.01186 | 1.32440 | 28155 ft | 500 kts | 284° |
| 2026-05-01 11:02 | 49.02164 | 1.27332 | 28582 ft | 504 kts | 284° |
| 2026-05-01 11:03 | 49.02966 | 1.22155 | 28983 ft | 505 kts | 276° |
| 2026-05-01 11:03 | 49.03356 | 1.16898 | 29424 ft | 506 kts | 271° |
| 2026-05-01 11:03 | 49.03557 | 1.11556 | 29929 ft | 506 kts | 269° |
| 2026-05-01 11:03 | 49.03661 | 1.06248 | 30680 ft | 501 kts | 268° |
| 2026-05-01 11:04 | 49.03791 | 1.00997 | 31386 ft | 497 kts | 269° |
| 2026-05-01 11:04 | 49.03952 | 0.95767 | 31948 ft | 496 kts | 269° |
| 2026-05-01 11:04 | 49.04019 | 0.90582 | 32555 ft | 491 kts | 269° |
| 2026-05-01 11:04 | 49.04234 | 0.85427 | 33188 ft | 486 kts | 271° |
| 2026-05-01 11:05 | 49.04419 | 0.80312 | 33487 ft | 489 kts | 270° |
| 2026-05-01 11:05 | 49.04567 | 0.75110 | 33741 ft | 492 kts | 270° |
| 2026-05-01 11:05 | 49.04711 | 0.69940 | 34139 ft | 492 kts | 270° |
| 2026-05-01 11:05 | 49.04763 | 0.64733 | 34223 ft | 487 kts | 253° |
| 2026-05-01 11:06 | 49.03567 | 0.60088 | 33699 ft | 481 kts | 244° |
| 2026-05-01 11:06 | 49.02356 | 0.55342 | 33968 ft | 477 kts | 251° |
| 2026-05-01 11:06 | 49.01660 | 0.50431 | 34170 ft | 483 kts | 260° |
| 2026-05-01 11:07 | 49.01773 | 0.40155 | 34187 ft | 490 kts | 279° |
| 2026-05-01 11:07 | 49.02582 | 0.35136 | 34189 ft | 490 kts | 285° |
| 2026-05-01 11:07 | 49.04191 | 0.25090 | 34173 ft | 489 kts | 279° |
| 2026-05-01 11:08 | 49.05185 | 0.14942 | 34177 ft | 487 kts | 275° |
| 2026-05-01 11:08 | 49.06583 | 0.05153 | 35290 ft | 468 kts | 279° |
| 2026-05-01 11:09 | 49.06967 | 0.00212 | 35048 ft | 479 kts | 270° |
| 2026-05-01 11:09 | 49.06975 | -0.04923 | 34830 ft | 484 kts | 268° |
| 2026-05-01 11:09 | 49.06959 | -0.09980 | 34605 ft | 482 kts | 268° |
| 2026-05-01 11:10 | 49.07003 | -0.20153 | 34176 ft | 479 kts | 269° |
| 2026-05-01 11:10 | 49.07053 | -0.25249 | 34163 ft | 480 kts | 269° |
| 2026-05-01 11:10 | 49.07182 | -0.35380 | 34178 ft | 480 kts | 270° |
| 2026-05-01 11:11 | 49.07330 | -0.45450 | 34172 ft | 477 kts | 270° |
| 2026-05-01 11:11 | 49.07485 | -0.55561 | 34178 ft | 476 kts | 270° |
| 2026-05-01 11:12 | 49.07638 | -0.65580 | 34188 ft | 476 kts | 270° |
| 2026-05-01 11:12 | 49.07787 | -0.75596 | 34179 ft | 475 kts | 270° |
| 2026-05-01 11:13 | 49.07929 | -0.85643 | 34181 ft | 474 kts | 270° |
| 2026-05-01 11:13 | 49.08064 | -0.95629 | 34177 ft | 472 kts | 270° |
| 2026-05-01 11:14 | 49.08188 | -1.05419 | 34180 ft | 472 kts | 270° |
| 2026-05-01 11:14 | 49.08320 | -1.15372 | 34185 ft | 472 kts | 273° |
| 2026-05-01 11:15 | 49.09489 | -1.25155 | 34185 ft | 473 kts | 283° |
| 2026-05-01 11:15 | 49.11083 | -1.34917 | 34179 ft | 473 kts | 283° |
| 2026-05-01 11:16 | 49.12650 | -1.44603 | 34186 ft | 473 kts | 283° |
| 2026-05-01 11:16 | 49.14207 | -1.54311 | 34187 ft | 472 kts | 283° |
| 2026-05-01 11:17 | 49.15763 | -1.64081 | 34186 ft | 471 kts | 283° |
| 2026-05-01 11:17 | 49.17294 | -1.73763 | 34189 ft | 469 kts | 282° |
| 2026-05-01 11:18 | 49.18821 | -1.83479 | 34192 ft | 470 kts | 282° |
| 2026-05-01 11:18 | 49.20342 | -1.93215 | 34194 ft | 470 kts | 282° |
| 2026-05-01 11:19 | 49.21857 | -2.02977 | 34197 ft | 468 kts | 282° |
| 2026-05-01 11:19 | 49.23470 | -2.12680 | 34192 ft | 455 kts | 283° |
| 2026-05-01 11:20 | 49.24272 | -2.17298 | 34191 ft | 441 kts | 283° |
| 2026-05-01 11:20 | 49.25060 | -2.21859 | 34198 ft | 447 kts | 283° |
| 2026-05-01 11:20 | 49.26658 | -2.31184 | 34197 ft | 460 kts | 283° |
| 2026-05-01 11:21 | 49.28287 | -2.40766 | 34197 ft | 471 kts | 283° |
| 2026-05-01 11:21 | 49.29936 | -2.50523 | 34197 ft | 470 kts | 283° |
| 2026-05-01 11:22 | 49.31575 | -2.60281 | 34198 ft | 471 kts | 283° |
| 2026-05-01 11:22 | 49.33234 | -2.70219 | 34198 ft | 471 kts | 282° |
| 2026-05-01 11:23 | 49.34839 | -2.79893 | 34199 ft | 470 kts | 282° |
| 2026-05-01 11:23 | 49.36450 | -2.89659 | 34198 ft | 471 kts | 282° |
| 2026-05-01 11:24 | 49.38055 | -2.99445 | 34196 ft | 472 kts | 281° |
| 2026-05-01 11:25 | 49.40446 | -3.14132 | 34198 ft | 473 kts | 281° |
| 2026-05-01 11:25 | 49.42820 | -3.28840 | 34198 ft | 473 kts | 281° |
| 2026-05-01 11:26 | 49.44732 | -3.40786 | 34198 ft | 473 kts | 281° |
| 2026-05-01 11:27 | 49.46284 | -3.50546 | 34199 ft | 474 kts | 281° |
| 2026-05-01 11:27 | 49.47699 | -3.59489 | 34198 ft | 473 kts | 281° |
| 2026-05-01 11:28 | 49.49283 | -3.69564 | 34198 ft | 474 kts | 280° |
| 2026-05-01 11:28 | 49.50896 | -3.79888 | 34198 ft | 473 kts | 279° |
| 2026-05-01 11:29 | 49.53296 | -3.95373 | 34199 ft | 475 kts | 279° |
| 2026-05-01 11:30 | 49.55571 | -4.10195 | 34198 ft | 475 kts | 279° |
| 2026-05-01 11:30 | 49.57108 | -4.20277 | 34203 ft | 475 kts | 279° |
| 2026-05-01 11:31 | 49.58644 | -4.30431 | 34198 ft | 475 kts | 279° |
| 2026-05-01 11:31 | 49.60589 | -4.40700 | 34200 ft | 479 kts | 287° |
| 2026-05-01 11:32 | 49.63042 | -4.50943 | 34196 ft | 480 kts | 286° |
| 2026-05-01 11:32 | 49.65437 | -4.61182 | 34196 ft | 480 kts | 285° |
| 2026-05-01 11:33 | 49.67792 | -4.71415 | 34201 ft | 481 kts | 285° |
| 2026-05-01 11:33 | 49.70013 | -4.81166 | 34202 ft | 480 kts | 284° |
| 2026-05-01 11:34 | 49.72229 | -4.90970 | 34195 ft | 482 kts | 284° |
| 2026-05-01 11:34 | 49.74406 | -5.00665 | 34191 ft | 481 kts | 284° |
| 2026-05-01 11:35 | 49.76585 | -5.10421 | 34188 ft | 482 kts | 284° |
| 2026-05-01 11:35 | 49.78756 | -5.20189 | 34201 ft | 482 kts | 284° |
| 2026-05-01 11:36 | 49.80918 | -5.29967 | 34193 ft | 483 kts | 284° |
| 2026-05-01 11:36 | 49.83077 | -5.39778 | 34192 ft | 484 kts | 284° |
| 2026-05-01 11:37 | 49.85238 | -5.49643 | 34194 ft | 484 kts | 284° |
| 2026-05-01 11:37 | 49.87374 | -5.59445 | 34195 ft | 485 kts | 284° |
| 2026-05-01 11:38 | 49.89510 | -5.69286 | 34174 ft | 482 kts | 283° |
| 2026-05-01 11:38 | 49.91630 | -5.79113 | 34175 ft | 484 kts | 283° |
| 2026-05-01 11:39 | 49.93759 | -5.89021 | 34173 ft | 485 kts | 283° |
| 2026-05-01 11:39 | 49.95878 | -5.98933 | 34166 ft | 485 kts | 283° |
| 2026-05-01 11:40 | 49.97979 | -6.08807 | 34163 ft | 486 kts | 283° |
| 2026-05-01 11:40 | 50.00080 | -6.18732 | 34160 ft | 487 kts | 283° |
| 2026-05-01 11:41 | 50.02186 | -6.28727 | 34161 ft | 486 kts | 283° |
| 2026-05-01 11:41 | 50.04259 | -6.38611 | 34159 ft | 485 kts | 283° |
| 2026-05-01 11:42 | 50.06334 | -6.48558 | 34161 ft | 486 kts | 283° |
| 2026-05-01 11:42 | 50.08404 | -6.58534 | 34166 ft | 487 kts | 283° |
| 2026-05-01 11:43 | 50.10468 | -6.68525 | 34156 ft | 486 kts | 282° |
| 2026-05-01 11:43 | 50.12528 | -6.78549 | 34151 ft | 486 kts | 282° |
| 2026-05-01 11:44 | 50.15597 | -6.93576 | 34147 ft | 486 kts | 282° |
| 2026-05-01 11:44 | 50.17625 | -7.03576 | 34149 ft | 488 kts | 281° |
| 2026-05-01 11:45 | 50.19652 | -7.13610 | 34149 ft | 485 kts | 281° |
| 2026-05-01 11:45 | 50.21675 | -7.23687 | 34143 ft | 487 kts | 282° |
| 2026-05-01 11:46 | 50.23696 | -7.33798 | 34142 ft | 488 kts | 281° |
| 2026-05-01 11:46 | 50.25732 | -7.44045 | 34139 ft | 489 kts | 281° |
| 2026-05-01 11:47 | 50.27780 | -7.54397 | 34135 ft | 487 kts | 282° |
| 2026-05-01 11:47 | 50.29794 | -7.64641 | 34138 ft | 489 kts | 282° |
| 2026-05-01 11:48 | 50.31810 | -7.74943 | 34129 ft | 487 kts | 281° |
| 2026-05-01 11:48 | 50.33805 | -7.85199 | 34134 ft | 487 kts | 281° |
| 2026-05-01 11:49 | 50.35790 | -7.95455 | 34129 ft | 490 kts | 281° |
| 2026-05-01 11:49 | 50.37962 | -8.05649 | 34116 ft | 493 kts | 288° |
| 2026-05-01 11:50 | 50.40800 | -8.15751 | 34117 ft | 494 kts | 288° |
| 2026-05-01 11:50 | 50.43554 | -8.25701 | 34120 ft | 493 kts | 288° |
| 2026-05-01 11:51 | 50.46273 | -8.35688 | 34107 ft | 492 kts | 287° |
| 2026-05-01 11:51 | 50.48955 | -8.45641 | 34110 ft | 492 kts | 288° |
| 2026-05-01 11:52 | 50.51621 | -8.55610 | 34111 ft | 494 kts | 288° |
| 2026-05-01 11:52 | 50.54268 | -8.65561 | 34102 ft | 489 kts | 287° |
| 2026-05-01 11:53 | 50.56886 | -8.75465 | 34109 ft | 491 kts | 287° |
| 2026-05-01 11:53 | 50.59491 | -8.85361 | 34098 ft | 488 kts | 287° |
| 2026-05-01 11:54 | 50.62092 | -8.95290 | 34106 ft | 490 kts | 287° |
| 2026-05-01 11:54 | 50.64676 | -9.05199 | 34108 ft | 489 kts | 287° |
| 2026-05-01 11:55 | 50.67248 | -9.15103 | 34085 ft | 488 kts | 287° |
| 2026-05-01 11:55 | 50.69812 | -9.25024 | 34096 ft | 488 kts | 287° |
| 2026-05-01 11:56 | 50.72374 | -9.34974 | 34102 ft | 487 kts | 287° |
| 2026-05-01 11:56 | 50.74899 | -9.44831 | 34084 ft | 486 kts | 287° |
| 2026-05-01 11:57 | 50.77433 | -9.54766 | 34079 ft | 488 kts | 287° |
| 2026-05-01 11:57 | 50.79951 | -9.64673 | 34098 ft | 485 kts | 287° |
| 2026-05-01 11:58 | 50.82458 | -9.74589 | 34084 ft | 486 kts | 287° |
| 2026-05-01 11:59 | 50.86190 | -9.89429 | 34059 ft | 485 kts | 287° |
| 2026-05-01 11:59 | 50.88681 | -9.99393 | 34076 ft | 490 kts | 287° |
| 2026-05-01 12:00 | 50.92378 | -10.14257 | 34071 ft | 487 kts | 287° |
| 2026-05-01 12:01 | 50.96061 | -10.29161 | 34066 ft | 484 kts | 287° |
| 2026-05-01 12:01 | 50.98481 | -10.39017 | 34070 ft | 483 kts | 287° |
| 2026-05-01 12:02 | 51.00899 | -10.48903 | 34070 ft | 483 kts | 287° |
| 2026-05-01 12:02 | 51.03313 | -10.58821 | 34072 ft | 481 kts | 287° |
| 2026-05-01 12:03 | 51.05700 | -10.68671 | 34076 ft | 481 kts | 286° |
| 2026-05-01 12:03 | 51.08088 | -10.78567 | 34080 ft | 479 kts | 286° |
| 2026-05-01 12:04 | 51.10456 | -10.88425 | 34078 ft | 480 kts | 286° |
| 2026-05-01 12:04 | 51.12820 | -10.98315 | 34068 ft | 478 kts | 286° |
| 2026-05-01 12:05 | 51.15172 | -11.08198 | 34072 ft | 480 kts | 286° |
| 2026-05-01 12:05 | 51.18704 | -11.23121 | 34057 ft | 478 kts | 286° |
| 2026-05-01 12:06 | 51.21194 | -11.33706 | 34061 ft | 479 kts | 287° |
| 2026-05-01 12:06 | 51.23579 | -11.43893 | 34057 ft | 479 kts | 287° |
| 2026-05-01 12:07 | 51.25949 | -11.54065 | 34053 ft | 479 kts | 287° |
| 2026-05-01 12:07 | 51.28313 | -11.64261 | 34047 ft | 481 kts | 287° |
| 2026-05-01 12:08 | 51.30660 | -11.74429 | 34047 ft | 480 kts | 287° |
| 2026-05-01 12:08 | 51.32997 | -11.84605 | 34050 ft | 481 kts | 287° |
| 2026-05-01 12:09 | 51.35331 | -11.94812 | 34045 ft | 479 kts | 287° |
| 2026-05-01 12:09 | 51.37661 | -12.05057 | 34047 ft | 481 kts | 287° |
| 2026-05-01 12:10 | 51.41127 | -12.20385 | 34046 ft | 480 kts | 287° |
| 2026-05-01 12:11 | 51.44591 | -12.35819 | 34043 ft | 480 kts | 288° |
| 2026-05-01 12:11 | 51.46878 | -12.46070 | 34050 ft | 480 kts | 288° |
| 2026-05-01 12:12 | 51.49161 | -12.56355 | 34044 ft | 479 kts | 288° |
| 2026-05-01 12:12 | 51.51403 | -12.66503 | 34031 ft | 480 kts | 288° |
| 2026-05-01 12:13 | 51.53616 | -12.76573 | 34025 ft | 479 kts | 288° |
| 2026-05-01 12:13 | 51.55823 | -12.86659 | 34021 ft | 480 kts | 288° |
| 2026-05-01 12:14 | 51.58017 | -12.96741 | 33975 ft | 479 kts | 288° |
| 2026-05-01 12:14 | 51.60202 | -13.06827 | 34088 ft | 481 kts | 288° |
| 2026-05-01 12:15 | 51.62387 | -13.16961 | 34021 ft | 479 kts | 288° |
| 2026-05-01 12:15 | 51.64548 | -13.27036 | 34019 ft | 482 kts | 288° |
| 2026-05-01 12:16 | 51.66718 | -13.37206 | 34016 ft | 480 kts | 288° |
| 2026-05-01 12:16 | 51.68877 | -13.47373 | 34019 ft | 482 kts | 288° |
| 2026-05-01 12:17 | 51.71035 | -13.57586 | 34013 ft | 480 kts | 289° |
| 2026-05-01 12:17 | 51.73200 | -13.67882 | 34015 ft | 482 kts | 289° |
| 2026-05-01 12:18 | 51.75339 | -13.78111 | 34017 ft | 480 kts | 289° |
| 2026-05-01 12:18 | 51.77471 | -13.88356 | 34014 ft | 478 kts | 289° |
| 2026-05-01 12:19 | 51.79585 | -13.98567 | 34018 ft | 479 kts | 289° |
| 2026-05-01 12:19 | 51.81683 | -14.08756 | 34026 ft | 478 kts | 289° |
| 2026-05-01 12:20 | 51.83761 | -14.18895 | 34016 ft | 478 kts | 289° |
| 2026-05-01 12:20 | 51.85905 | -14.29065 | 34023 ft | 478 kts | 289° |
| 2026-05-01 12:21 | 51.87971 | -14.39402 | 34026 ft | 479 kts | 289° |
| 2026-05-01 12:21 | 51.90028 | -14.49690 | 34027 ft | 478 kts | 290° |
| 2026-05-01 12:22 | 51.92096 | -14.60048 | 34033 ft | 478 kts | 290° |
| 2026-05-01 12:22 | 51.94221 | -14.70722 | 34032 ft | 476 kts | 289° |
| 2026-05-01 12:23 | 51.96262 | -14.81017 | 34034 ft | 475 kts | 290° |
| 2026-05-01 12:23 | 51.98324 | -14.91465 | 34036 ft | 476 kts | 290° |
| 2026-05-01 12:24 | 51.99771 | -15.02126 | 34032 ft | 480 kts | 277° |
| 2026-05-01 12:24 | 52.00140 | -15.13075 | 34045 ft | 480 kts | 275° |
| 2026-05-01 12:25 | 52.00538 | -15.29506 | 34058 ft | 479 kts | 275° |
| 2026-05-01 12:26 | 52.00762 | -15.40500 | 34063 ft | 479 kts | 275° |
| 2026-05-01 12:26 | 52.01060 | -15.57017 | 34079 ft | 480 kts | 275° |
| 2026-05-01 12:27 | 52.01324 | -15.73511 | 34088 ft | 482 kts | 274° |
| 2026-05-01 12:28 | 52.01558 | -15.89787 | 34102 ft | 481 kts | 275° |
| 2026-05-01 12:29 | 52.01767 | -16.05940 | 34134 ft | 479 kts | 275° |
| 2026-05-01 12:29 | 52.01954 | -16.22133 | 34131 ft | 480 kts | 275° |
| 2026-05-01 12:30 | 52.02118 | -16.38332 | 34126 ft | 479 kts | 276° |
| 2026-05-01 12:31 | 52.02216 | -16.49199 | 34123 ft | 482 kts | 276° |
| 2026-05-01 12:31 | 52.02303 | -16.60015 | 34145 ft | 479 kts | 276° |
| 2026-05-01 12:32 | 52.02382 | -16.70888 | 34146 ft | 482 kts | 276° |
| 2026-05-01 12:32 | 52.02479 | -16.87204 | 34145 ft | 480 kts | 276° |
| 2026-05-01 12:33 | 52.02531 | -16.98051 | 34160 ft | 480 kts | 277° |
| 2026-05-01 12:33 | 52.02575 | -17.09086 | 34165 ft | 478 kts | 277° |
| 2026-05-01 12:34 | 52.02609 | -17.20143 | 34163 ft | 482 kts | 277° |
| 2026-05-01 12:34 | 52.02632 | -17.31305 | 34171 ft | 483 kts | 277° |
| 2026-05-01 12:35 | 52.02644 | -17.42442 | 34198 ft | 481 kts | 277° |
| 2026-05-01 12:35 | 52.02647 | -17.53679 | 34176 ft | 484 kts | 277° |
| 2026-05-01 12:36 | 52.02637 | -17.64730 | 34179 ft | 480 kts | 277° |
| 2026-05-01 12:36 | 52.02619 | -17.75953 | 34197 ft | 484 kts | 276° |
| 2026-05-01 12:37 | 52.02588 | -17.86906 | 34184 ft | 481 kts | 277° |
| 2026-05-01 12:37 | 52.02549 | -17.97950 | 34200 ft | 483 kts | 277° |
| 2026-05-01 12:38 | 52.02500 | -18.08960 | 34200 ft | 484 kts | 276° |
| 2026-05-01 12:38 | 52.02438 | -18.20064 | 34201 ft | 482 kts | 277° |
| 2026-05-01 12:39 | 52.02368 | -18.31063 | 34201 ft | 482 kts | 277° |
| 2026-05-01 12:39 | 52.02288 | -18.42036 | 34213 ft | 482 kts | 277° |
| 2026-05-01 12:40 | 52.02197 | -18.53064 | 34214 ft | 482 kts | 277° |
| 2026-05-01 12:40 | 52.02096 | -18.64048 | 34218 ft | 481 kts | 277° |
| 2026-05-01 12:41 | 52.01985 | -18.74992 | 34223 ft | 480 kts | 276° |
| 2026-05-01 12:41 | 52.01864 | -18.85919 | 34226 ft | 479 kts | 276° |
| 2026-05-01 12:42 | 52.01734 | -18.96766 | 34229 ft | 480 kts | 276° |
| 2026-05-01 12:42 | 52.01595 | -19.07644 | 34234 ft | 480 kts | 276° |
| 2026-05-01 12:43 | 52.01444 | -19.18489 | 34231 ft | 478 kts | 276° |
| 2026-05-01 12:43 | 52.01285 | -19.29310 | 34241 ft | 479 kts | 276° |
| 2026-05-01 12:44 | 52.01117 | -19.40035 | 34240 ft | 480 kts | 276° |
| 2026-05-01 12:45 | 52.00750 | -19.61663 | 34245 ft | 479 kts | 276° |
| 2026-05-01 12:45 | 52.00552 | -19.72408 | 34246 ft | 479 kts | 275° |
| 2026-05-01 12:46 | 52.00343 | -19.83243 | 34251 ft | 480 kts | 275° |
| 2026-05-01 12:46 | 52.00124 | -19.94095 | 34256 ft | 483 kts | 275° |
| 2026-05-01 12:47 | 51.99710 | -20.04956 | 34251 ft | 482 kts | 272° |
| 2026-05-01 12:47 | 51.99098 | -20.15858 | 34253 ft | 482 kts | 272° |
| 2026-05-01 12:48 | 51.98476 | -20.26675 | 34258 ft | 483 kts | 271° |
| 2026-05-01 12:48 | 51.97842 | -20.37498 | 34259 ft | 481 kts | 271° |
| 2026-05-01 12:49 | 51.97201 | -20.48286 | 34264 ft | 485 kts | 271° |
| 2026-05-01 12:49 | 51.96542 | -20.59182 | 34264 ft | 483 kts | 271° |
| 2026-05-01 12:50 | 51.95882 | -20.69917 | 34266 ft | 484 kts | 270° |
| 2026-05-01 12:50 | 51.95203 | -20.80813 | 34273 ft | 484 kts | 270° |
| 2026-05-01 12:51 | 51.94521 | -20.91578 | 34274 ft | 483 kts | 270° |
| 2026-05-01 12:52 | 51.93476 | -21.07774 | 34279 ft | 483 kts | 269° |
| 2026-05-01 12:52 | 51.91698 | -21.23915 | 34304 ft | 481 kts | 273° |
| 2026-05-01 12:53 | 51.91254 | -21.34708 | 34714 ft | 475 kts | 271° |
| 2026-05-01 12:53 | 51.91000 | -21.40068 | 34506 ft | 484 kts | 271° |
| 2026-05-01 12:53 | 51.90717 | -21.45529 | 34320 ft | 483 kts | 271° |
| 2026-05-01 12:54 | 51.90413 | -21.50868 | 34303 ft | 479 kts | 271° |
| 2026-05-01 12:54 | 51.89399 | -21.66978 | 34297 ft | 481 kts | 269° |
| 2026-05-01 12:55 | 51.88285 | -21.83238 | 34297 ft | 483 kts | 269° |
| 2026-05-01 12:56 | 51.87519 | -21.94009 | 34297 ft | 482 kts | 269° |
| 2026-05-01 12:56 | 51.86736 | -22.04805 | 34301 ft | 483 kts | 268° |
| 2026-05-01 12:57 | 51.85939 | -22.15608 | 34310 ft | 482 kts | 268° |
| 2026-05-01 12:57 | 51.84729 | -22.31720 | 34310 ft | 481 kts | 268° |
| 2026-05-01 12:58 | 51.83913 | -22.42410 | 34312 ft | 481 kts | 268° |
| 2026-05-01 12:59 | 51.82668 | -22.58450 | 34327 ft | 482 kts | 268° |
| 2026-05-01 12:59 | 51.81393 | -22.74589 | 34325 ft | 481 kts | 267° |
| 2026-05-01 13:00 | 51.80107 | -22.90587 | 34341 ft | 480 kts | 267° |
| 2026-05-01 13:01 | 51.78799 | -23.06579 | 34342 ft | 481 kts | 267° |
| 2026-05-01 13:02 | 51.77812 | -23.18464 | 34346 ft | 482 kts | 267° |
| 2026-05-01 13:07 | 51.69103 | -24.17509 | 34368 ft | 480 kts | 266° |
| 2026-05-01 13:08 | 51.68118 | -24.28118 | 34369 ft | 480 kts | 266° |
| 2026-05-01 13:08 | 51.67116 | -24.38816 | 34368 ft | 480 kts | 266° |
| 2026-05-01 13:09 | 51.66117 | -24.49364 | 34375 ft | 480 kts | 266° |
| 2026-05-01 13:09 | 51.65098 | -24.60024 | 34379 ft | 480 kts | 266° |
| 2026-05-01 13:10 | 51.64072 | -24.70646 | 34380 ft | 481 kts | 265° |
| 2026-05-01 13:10 | 51.63039 | -24.81240 | 34381 ft | 481 kts | 265° |
| 2026-05-01 13:11 | 51.61992 | -24.91874 | 34382 ft | 481 kts | 265° |
| 2026-05-01 13:11 | 51.60935 | -25.02508 | 34385 ft | 481 kts | 265° |
| 2026-05-01 13:12 | 51.59871 | -25.13110 | 34386 ft | 480 kts | 265° |
| 2026-05-01 13:12 | 51.58799 | -25.23703 | 34388 ft | 481 kts | 265° |
| 2026-05-01 13:13 | 51.57720 | -25.34253 | 34391 ft | 481 kts | 265° |
| 2026-05-01 13:13 | 51.56625 | -25.44858 | 34396 ft | 481 kts | 265° |
| 2026-05-01 13:14 | 51.55531 | -25.55363 | 34399 ft | 480 kts | 265° |
| 2026-05-01 13:14 | 51.54417 | -25.65971 | 34401 ft | 481 kts | 265° |
| 2026-05-01 13:15 | 51.53302 | -25.76485 | 34399 ft | 482 kts | 264° |
| 2026-05-01 13:15 | 51.52163 | -25.87133 | 34399 ft | 481 kts | 265° |
| 2026-05-01 13:16 | 51.51030 | -25.97621 | 34402 ft | 481 kts | 265° |
| 2026-05-01 13:16 | 51.49872 | -26.08260 | 34408 ft | 481 kts | 265° |
| 2026-05-01 13:17 | 51.47546 | -26.29344 | 34412 ft | 482 kts | 265° |
| 2026-05-01 13:18 | 51.45777 | -26.45140 | 34416 ft | 482 kts | 265° |
| 2026-05-01 13:18 | 51.44581 | -26.55713 | 34418 ft | 483 kts | 265° |
| 2026-05-01 13:19 | 51.43377 | -26.66260 | 34419 ft | 483 kts | 264° |
| 2026-05-01 13:20 | 51.41548 | -26.82114 | 34423 ft | 483 kts | 264° |
| 2026-05-01 13:20 | 51.40318 | -26.92663 | 34425 ft | 483 kts | 264° |
| 2026-05-01 13:21 | 51.38445 | -27.08567 | 34429 ft | 482 kts | 264° |
| 2026-05-01 13:21 | 51.37190 | -27.19126 | 34431 ft | 484 kts | 264° |
| 2026-05-01 13:22 | 51.35934 | -27.29598 | 34430 ft | 482 kts | 264° |
| 2026-05-01 13:22 | 51.34652 | -27.40202 | 34429 ft | 482 kts | 264° |
| 2026-05-01 13:23 | 51.33368 | -27.50738 | 34431 ft | 481 kts | 264° |
| 2026-05-01 13:23 | 51.32084 | -27.61197 | 34432 ft | 483 kts | 264° |
| 2026-05-01 13:24 | 51.30783 | -27.71710 | 34438 ft | 483 kts | 263° |
| 2026-05-01 13:25 | 51.28820 | -27.87409 | 34440 ft | 483 kts | 263° |
| 2026-05-01 13:25 | 51.27496 | -27.97906 | 34445 ft | 481 kts | 263° |
| 2026-05-01 13:26 | 51.26168 | -28.08346 | 34447 ft | 482 kts | 263° |
| 2026-05-01 13:26 | 51.24824 | -28.18839 | 34449 ft | 483 kts | 263° |
| 2026-05-01 13:27 | 51.23474 | -28.29301 | 34449 ft | 482 kts | 263° |
| 2026-05-01 13:27 | 51.21440 | -28.44911 | 34452 ft | 482 kts | 263° |
| 2026-05-01 13:28 | 51.19379 | -28.60557 | 34450 ft | 481 kts | 263° |
| 2026-05-01 13:29 | 51.16591 | -28.81450 | 34449 ft | 483 kts | 262° |
| 2026-05-01 13:31 | 51.12347 | -29.12689 | 34454 ft | 482 kts | 262° |
| 2026-05-01 13:32 | 51.08744 | -29.38694 | 34471 ft | 483 kts | 261° |
| 2026-05-01 13:33 | 51.05085 | -29.64651 | 34468 ft | 484 kts | 261° |
| 2026-05-01 13:34 | 51.02113 | -29.85407 | 34467 ft | 483 kts | 260° |
| 2026-05-01 13:35 | 50.99862 | -30.00950 | 34467 ft | 481 kts | 260° |
| 2026-05-01 13:36 | 50.98877 | -30.16642 | 34474 ft | 478 kts | 269° |
| 2026-05-01 13:36 | 50.98081 | -30.32395 | 34481 ft | 480 kts | 268° |
| 2026-05-01 13:37 | 50.97499 | -30.42850 | 34486 ft | 479 kts | 268° |
| 2026-05-01 13:37 | 50.96889 | -30.53358 | 34488 ft | 480 kts | 268° |
| 2026-05-01 13:38 | 50.95941 | -30.69116 | 34487 ft | 480 kts | 267° |
| 2026-05-01 13:39 | 50.95298 | -30.79538 | 34488 ft | 479 kts | 267° |
| 2026-05-01 13:39 | 50.94638 | -30.90050 | 34487 ft | 480 kts | 266° |
| 2026-05-01 13:40 | 50.93971 | -31.00500 | 34490 ft | 480 kts | 266° |
| 2026-05-01 13:40 | 50.93294 | -31.10960 | 34490 ft | 480 kts | 266° |
| 2026-05-01 13:41 | 50.92604 | -31.21472 | 34485 ft | 480 kts | 266° |
| 2026-05-01 13:41 | 50.91907 | -31.31928 | 34482 ft | 479 kts | 266° |
| 2026-05-01 13:42 | 50.91200 | -31.42388 | 34485 ft | 479 kts | 266° |
| 2026-05-01 13:42 | 50.90489 | -31.52776 | 34482 ft | 477 kts | 266° |
| 2026-05-01 13:43 | 50.89764 | -31.63234 | 34478 ft | 478 kts | 266° |
| 2026-05-01 13:43 | 50.89032 | -31.73659 | 34479 ft | 480 kts | 265° |
| 2026-05-01 13:44 | 50.88289 | -31.84094 | 34480 ft | 479 kts | 265° |
| 2026-05-01 13:44 | 50.87536 | -31.94523 | 34485 ft | 478 kts | 265° |
| 2026-05-01 13:45 | 50.86774 | -32.04960 | 34484 ft | 478 kts | 265° |
| 2026-05-01 13:45 | 50.86008 | -32.15324 | 34486 ft | 478 kts | 265° |
| 2026-05-01 13:46 | 50.85226 | -32.25762 | 34487 ft | 478 kts | 265° |
| 2026-05-01 13:46 | 50.84438 | -32.36177 | 34487 ft | 478 kts | 264° |
| 2026-05-01 13:47 | 50.83644 | -32.46519 | 34488 ft | 478 kts | 264° |
| 2026-05-01 13:47 | 50.82836 | -32.56930 | 34488 ft | 477 kts | 264° |
| 2026-05-01 13:48 | 50.82026 | -32.67260 | 34491 ft | 477 kts | 263° |
| 2026-05-01 13:48 | 50.81198 | -32.77674 | 34495 ft | 478 kts | 263° |
| 2026-05-01 13:49 | 50.80370 | -32.87982 | 34500 ft | 476 kts | 263° |
| 2026-05-01 13:49 | 50.79528 | -32.98350 | 34498 ft | 477 kts | 263° |
| 2026-05-01 13:50 | 50.78682 | -33.08643 | 34509 ft | 476 kts | 263° |
| 2026-05-01 13:50 | 50.77818 | -33.19045 | 34507 ft | 478 kts | 263° |
| 2026-05-01 13:51 | 50.76950 | -33.29384 | 34493 ft | 478 kts | 263° |
| 2026-05-01 13:51 | 50.76075 | -33.39682 | 34501 ft | 477 kts | 263° |
| 2026-05-01 13:52 | 50.75184 | -33.50068 | 34509 ft | 477 kts | 263° |
| 2026-05-01 13:52 | 50.74291 | -33.60362 | 34498 ft | 477 kts | 263° |
| 2026-05-01 13:53 | 50.73383 | -33.70729 | 34494 ft | 478 kts | 262° |
| 2026-05-01 13:53 | 50.72008 | -33.86206 | 34488 ft | 477 kts | 262° |
| 2026-05-01 13:54 | 50.71080 | -33.96521 | 34490 ft | 477 kts | 262° |
| 2026-05-01 13:54 | 50.70141 | -34.06855 | 34489 ft | 476 kts | 261° |
| 2026-05-01 13:55 | 50.69200 | -34.17110 | 34490 ft | 477 kts | 261° |
| 2026-05-01 13:55 | 50.68240 | -34.27467 | 34492 ft | 477 kts | 261° |
| 2026-05-01 13:56 | 50.67275 | -34.37764 | 34498 ft | 479 kts | 261° |
| 2026-05-01 13:56 | 50.66300 | -34.48080 | 34504 ft | 478 kts | 261° |
| 2026-05-01 13:57 | 50.65480 | -34.56679 | 34504 ft | 479 kts | 261° |
| 2026-05-01 13:57 | 50.64319 | -34.68733 | 34501 ft | 479 kts | 260° |
| 2026-05-01 13:58 | 50.63311 | -34.79093 | 34500 ft | 479 kts | 260° |
| 2026-05-01 13:58 | 50.62294 | -34.89444 | 34502 ft | 480 kts | 260° |
| 2026-05-01 13:59 | 50.61274 | -34.99728 | 34502 ft | 479 kts | 259° |
| 2026-05-01 13:59 | 50.60242 | -35.10034 | 34500 ft | 479 kts | 259° |
| 2026-05-01 14:00 | 50.59197 | -35.20373 | 34498 ft | 479 kts | 259° |
| 2026-05-01 14:00 | 50.58144 | -35.30707 | 34490 ft | 480 kts | 259° |
| 2026-05-01 14:01 | 50.57085 | -35.40997 | 34493 ft | 481 kts | 259° |
| 2026-05-01 14:01 | 50.56010 | -35.51347 | 34499 ft | 481 kts | 259° |
| 2026-05-01 14:02 | 50.54923 | -35.61727 | 34498 ft | 481 kts | 259° |
| 2026-05-01 14:02 | 50.53832 | -35.72050 | 34497 ft | 480 kts | 258° |
| 2026-05-01 14:03 | 50.52739 | -35.82305 | 34493 ft | 480 kts | 258° |
| 2026-05-01 14:03 | 50.51626 | -35.92653 | 34489 ft | 480 kts | 258° |
| 2026-05-01 14:04 | 50.50504 | -36.02988 | 34492 ft | 482 kts | 258° |
| 2026-05-01 14:04 | 50.49560 | -36.11622 | 34497 ft | 482 kts | 258° |
| 2026-05-01 14:05 | 50.48228 | -36.23699 | 34496 ft | 481 kts | 258° |
| 2026-05-01 14:05 | 50.47085 | -36.33973 | 34497 ft | 481 kts | 257° |
| 2026-05-01 14:06 | 50.45923 | -36.44323 | 34498 ft | 482 kts | 257° |
| 2026-05-01 14:06 | 50.44752 | -36.54666 | 34496 ft | 482 kts | 257° |
| 2026-05-01 14:07 | 50.43577 | -36.64963 | 34496 ft | 482 kts | 257° |
| 2026-05-01 14:08 | 50.41789 | -36.80473 | 34492 ft | 481 kts | 256° |
| 2026-05-01 14:08 | 50.40587 | -36.90793 | 34495 ft | 482 kts | 256° |
| 2026-05-01 14:09 | 50.39379 | -37.01075 | 34492 ft | 482 kts | 256° |
| 2026-05-01 14:09 | 50.38163 | -37.11345 | 34485 ft | 482 kts | 256° |
| 2026-05-01 14:10 | 50.36931 | -37.21677 | 34481 ft | 481 kts | 256° |
| 2026-05-01 14:10 | 50.35693 | -37.31974 | 34484 ft | 481 kts | 256° |
| 2026-05-01 14:11 | 50.34456 | -37.42176 | 34486 ft | 481 kts | 256° |
| 2026-05-01 14:11 | 50.32575 | -37.57545 | 34479 ft | 481 kts | 255° |
| 2026-05-01 14:12 | 50.31311 | -37.67783 | 34479 ft | 480 kts | 255° |
| 2026-05-01 14:12 | 50.30037 | -37.78013 | 34470 ft | 479 kts | 255° |
| 2026-05-01 14:13 | 50.28975 | -37.86482 | 34472 ft | 478 kts | 255° |
| 2026-05-01 14:13 | 50.27478 | -37.98337 | 34468 ft | 478 kts | 255° |
| 2026-05-01 14:14 | 50.26184 | -38.08501 | 34465 ft | 477 kts | 255° |
| 2026-05-01 14:14 | 50.24889 | -38.18592 | 34472 ft | 476 kts | 255° |
| 2026-05-01 14:15 | 50.23584 | -38.28700 | 34479 ft | 475 kts | 255° |
| 2026-05-01 14:15 | 50.22268 | -38.38808 | 34482 ft | 475 kts | 255° |
| 2026-05-01 14:16 | 50.20956 | -38.48816 | 34486 ft | 473 kts | 255° |
| 2026-05-01 14:16 | 50.19637 | -38.58808 | 34495 ft | 473 kts | 255° |
| 2026-05-01 14:17 | 50.18308 | -38.68809 | 34492 ft | 472 kts | 255° |
| 2026-05-01 14:17 | 50.16970 | -38.78798 | 34489 ft | 471 kts | 255° |
| 2026-05-01 14:18 | 50.15631 | -38.88738 | 34473 ft | 470 kts | 255° |
| 2026-05-01 14:18 | 50.14511 | -38.96992 | 34465 ft | 468 kts | 255° |
| 2026-05-01 14:19 | 50.12936 | -39.08527 | 34474 ft | 468 kts | 255° |
| 2026-05-01 14:19 | 50.11572 | -39.18437 | 34474 ft | 468 kts | 255° |
| 2026-05-01 14:20 | 50.09525 | -39.33195 | 34475 ft | 468 kts | 255° |
| 2026-05-01 14:21 | 50.08144 | -39.43066 | 34478 ft | 465 kts | 256° |
| 2026-05-01 14:21 | 50.06769 | -39.52827 | 34464 ft | 466 kts | 256° |
| 2026-05-01 14:22 | 50.04680 | -39.67548 | 34466 ft | 464 kts | 255° |
| 2026-05-01 14:22 | 50.03295 | -39.77224 | 34477 ft | 462 kts | 255° |
| 2026-05-01 14:23 | 50.01891 | -39.86970 | 34471 ft | 463 kts | 255° |
| 2026-05-01 14:23 | 50.00481 | -39.96693 | 34469 ft | 463 kts | 256° |
| 2026-05-01 14:24 | 49.99358 | -40.06535 | 34475 ft | 464 kts | 264° |
| 2026-05-01 14:24 | 49.98916 | -40.16481 | 34483 ft | 464 kts | 264° |
| 2026-05-01 14:25 | 49.98418 | -40.26475 | 34477 ft | 463 kts | 264° |
| 2026-05-01 14:25 | 49.97880 | -40.36419 | 34476 ft | 465 kts | 264° |
| 2026-05-01 14:26 | 49.97022 | -40.51372 | 34476 ft | 465 kts | 264° |
| 2026-05-01 14:27 | 49.96427 | -40.61364 | 34462 ft | 465 kts | 264° |
| 2026-05-01 14:27 | 49.95813 | -40.71483 | 34461 ft | 464 kts | 263° |
| 2026-05-01 14:28 | 49.94876 | -40.86560 | 34453 ft | 464 kts | 263° |
| 2026-05-01 14:28 | 49.94241 | -40.96600 | 34444 ft | 465 kts | 263° |
| 2026-05-01 14:29 | 49.93597 | -41.06608 | 34453 ft | 466 kts | 263° |
| 2026-05-01 14:30 | 49.92282 | -41.26666 | 34441 ft | 467 kts | 263° |
| 2026-05-01 14:31 | 49.91275 | -41.41670 | 34444 ft | 467 kts | 263° |
| 2026-05-01 14:31 | 49.90586 | -41.51767 | 34436 ft | 470 kts | 263° |
| 2026-05-01 14:32 | 49.89887 | -41.61886 | 34447 ft | 469 kts | 263° |
| 2026-05-01 14:32 | 49.89182 | -41.71942 | 34457 ft | 468 kts | 263° |
| 2026-05-01 14:33 | 49.88470 | -41.81988 | 34452 ft | 469 kts | 263° |
| 2026-05-01 14:33 | 49.87751 | -41.92000 | 34456 ft | 470 kts | 262° |
| 2026-05-01 14:34 | 49.87018 | -42.02088 | 34446 ft | 471 kts | 263° |
| 2026-05-01 14:34 | 49.86279 | -42.12147 | 34468 ft | 471 kts | 262° |
| 2026-05-01 14:35 | 49.85525 | -42.22260 | 34465 ft | 470 kts | 263° |
| 2026-05-01 14:35 | 49.84772 | -42.32266 | 34465 ft | 470 kts | 263° |
| 2026-05-01 14:36 | 49.84010 | -42.42265 | 34464 ft | 470 kts | 263° |
| 2026-05-01 14:36 | 49.83232 | -42.52352 | 34460 ft | 471 kts | 263° |
| 2026-05-01 14:37 | 49.82444 | -42.62447 | 34456 ft | 473 kts | 263° |
| 2026-05-01 14:37 | 49.81646 | -42.72563 | 34460 ft | 473 kts | 262° |
| 2026-05-01 14:38 | 49.80837 | -42.82706 | 34436 ft | 475 kts | 262° |
| 2026-05-01 14:38 | 49.80016 | -42.92883 | 34444 ft | 474 kts | 262° |
| 2026-05-01 14:39 | 49.79192 | -43.02974 | 34448 ft | 473 kts | 262° |
| 2026-05-01 14:39 | 49.78360 | -43.13071 | 34443 ft | 473 kts | 262° |
| 2026-05-01 14:40 | 49.77517 | -43.23180 | 34444 ft | 474 kts | 262° |
| 2026-05-01 14:40 | 49.76666 | -43.33276 | 34449 ft | 474 kts | 262° |
| 2026-05-01 14:41 | 49.75806 | -43.43359 | 34441 ft | 476 kts | 262° |
| 2026-05-01 14:41 | 49.74934 | -43.53496 | 34449 ft | 475 kts | 262° |
| 2026-05-01 14:42 | 49.74052 | -43.63634 | 34444 ft | 476 kts | 262° |
| 2026-05-01 14:42 | 49.73161 | -43.73777 | 34439 ft | 475 kts | 261° |
| 2026-05-01 14:43 | 49.72255 | -43.83971 | 34440 ft | 475 kts | 261° |
| 2026-05-01 14:43 | 49.71341 | -43.94165 | 34441 ft | 476 kts | 261° |
| 2026-05-01 14:44 | 49.70421 | -44.04315 | 34442 ft | 475 kts | 261° |
| 2026-05-01 14:44 | 49.69036 | -44.19405 | 34443 ft | 475 kts | 261° |
| 2026-05-01 14:45 | 49.67623 | -44.34581 | 34441 ft | 476 kts | 260° |
| 2026-05-01 14:46 | 49.66671 | -44.44680 | 34440 ft | 477 kts | 260° |
| 2026-05-01 14:46 | 49.65229 | -44.59804 | 34432 ft | 478 kts | 260° |
| 2026-05-01 14:47 | 49.64254 | -44.69907 | 34438 ft | 477 kts | 259° |
| 2026-05-01 14:48 | 49.62769 | -44.85107 | 34424 ft | 479 kts | 259° |
| 2026-05-01 14:48 | 49.61267 | -45.00284 | 34419 ft | 478 kts | 259° |
| 2026-05-01 14:49 | 49.59219 | -45.20636 | 34422 ft | 478 kts | 259° |
| 2026-05-01 14:50 | 49.57134 | -45.40982 | 34424 ft | 480 kts | 259° |
| 2026-05-01 14:51 | 49.55555 | -45.56156 | 34423 ft | 480 kts | 259° |
| 2026-05-01 14:52 | 49.53954 | -45.71337 | 34420 ft | 480 kts | 258° |
| 2026-05-01 14:53 | 49.52329 | -45.86546 | 34420 ft | 480 kts | 258° |
| 2026-05-01 14:53 | 49.51237 | -45.96660 | 34416 ft | 482 kts | 258° |
| 2026-05-01 14:54 | 49.50135 | -46.06781 | 34423 ft | 481 kts | 258° |
| 2026-05-01 14:54 | 49.49020 | -46.16937 | 34426 ft | 482 kts | 258° |
| 2026-05-01 14:55 | 49.47883 | -46.27206 | 34424 ft | 481 kts | 258° |
| 2026-05-01 14:55 | 49.46741 | -46.37426 | 34421 ft | 483 kts | 258° |
| 2026-05-01 14:56 | 49.45591 | -46.47646 | 34425 ft | 481 kts | 258° |
| 2026-05-01 14:56 | 49.44437 | -46.57803 | 34419 ft | 484 kts | 258° |
| 2026-05-01 14:57 | 49.43271 | -46.67988 | 34418 ft | 483 kts | 257° |
| 2026-05-01 14:57 | 49.41497 | -46.83330 | 34416 ft | 483 kts | 257° |
| 2026-05-01 14:58 | 49.40300 | -46.93570 | 34403 ft | 483 kts | 257° |
| 2026-05-01 14:58 | 49.39100 | -47.03760 | 34399 ft | 484 kts | 257° |
| 2026-05-01 14:59 | 49.37897 | -47.13896 | 34401 ft | 484 kts | 257° |
| 2026-05-01 14:59 | 49.36686 | -47.24023 | 34398 ft | 485 kts | 257° |
| 2026-05-01 15:00 | 49.34845 | -47.39259 | 34399 ft | 484 kts | 257° |
| 2026-05-01 15:01 | 49.33606 | -47.49418 | 34396 ft | 484 kts | 257° |
| 2026-05-01 15:01 | 49.32365 | -47.59521 | 34397 ft | 485 kts | 257° |
| 2026-05-01 15:02 | 49.31115 | -47.69615 | 34395 ft | 485 kts | 256° |
| 2026-05-01 15:02 | 49.29844 | -47.79797 | 34398 ft | 487 kts | 256° |
| 2026-05-01 15:03 | 49.28565 | -47.89972 | 34403 ft | 485 kts | 256° |
| 2026-05-01 15:03 | 49.27282 | -48.00104 | 34411 ft | 484 kts | 256° |
| 2026-05-01 15:04 | 49.25991 | -48.10215 | 34414 ft | 484 kts | 256° |
| 2026-05-01 15:04 | 49.24693 | -48.20316 | 34409 ft | 485 kts | 256° |
| 2026-05-01 15:05 | 49.23392 | -48.30365 | 34398 ft | 485 kts | 256° |
| 2026-05-01 15:05 | 49.22071 | -48.40493 | 34401 ft | 484 kts | 256° |
| 2026-05-01 15:06 | 49.20741 | -48.50620 | 34402 ft | 484 kts | 256° |
| 2026-05-01 15:06 | 49.19405 | -48.60712 | 34401 ft | 485 kts | 256° |
| 2026-05-01 15:07 | 49.18069 | -48.70741 | 34388 ft | 485 kts | 255° |
| 2026-05-01 15:07 | 49.16711 | -48.80862 | 34382 ft | 485 kts | 255° |
| 2026-05-01 15:08 | 49.15346 | -48.90962 | 34379 ft | 485 kts | 255° |
| 2026-05-01 15:08 | 49.13973 | -49.01054 | 34372 ft | 484 kts | 256° |
| 2026-05-01 15:09 | 49.12602 | -49.11056 | 34362 ft | 484 kts | 256° |
| 2026-05-01 15:09 | 49.11216 | -49.21103 | 34365 ft | 485 kts | 256° |
| 2026-05-01 15:10 | 49.09829 | -49.31086 | 34370 ft | 484 kts | 255° |
| 2026-05-01 15:10 | 49.07717 | -49.46162 | 34360 ft | 484 kts | 256° |
| 2026-05-01 15:11 | 49.05607 | -49.61076 | 34372 ft | 481 kts | 256° |
| 2026-05-01 15:12 | 49.04182 | -49.71066 | 34359 ft | 481 kts | 255° |
| 2026-05-01 15:12 | 49.02030 | -49.86023 | 34359 ft | 482 kts | 255° |
| 2026-05-01 15:14 | 48.97433 | -50.10393 | 34357 ft | 479 kts | 248° |
| 2026-05-01 15:14 | 48.94045 | -50.24656 | 34355 ft | 479 kts | 248° |
| 2026-05-01 15:15 | 48.89471 | -50.43595 | 34363 ft | 478 kts | 248° |
| 2026-05-01 15:16 | 48.84853 | -50.62486 | 34356 ft | 478 kts | 249° |
| 2026-05-01 15:18 | 48.79034 | -50.86045 | 34354 ft | 476 kts | 248° |
| 2026-05-01 15:19 | 48.74358 | -51.04789 | 34352 ft | 477 kts | 248° |
| 2026-05-01 15:19 | 48.70827 | -51.18842 | 34342 ft | 478 kts | 249° |
| 2026-05-01 15:20 | 48.67263 | -51.32935 | 34338 ft | 479 kts | 249° |
| 2026-05-01 15:21 | 48.64891 | -51.42267 | 34334 ft | 479 kts | 249° |
| 2026-05-01 15:21 | 48.62490 | -51.51677 | 34333 ft | 479 kts | 249° |
| 2026-05-01 15:22 | 48.58901 | -51.65669 | 34330 ft | 479 kts | 249° |
| 2026-05-01 15:22 | 48.56478 | -51.75063 | 34327 ft | 479 kts | 249° |
| 2026-05-01 15:23 | 48.54067 | -51.84375 | 34329 ft | 478 kts | 249° |
| 2026-05-01 15:23 | 48.51649 | -51.93675 | 34326 ft | 477 kts | 249° |
| 2026-05-01 15:24 | 48.49243 | -52.02995 | 34322 ft | 477 kts | 251° |
| 2026-05-01 15:24 | 48.47008 | -52.12379 | 34318 ft | 476 kts | 251° |
| 2026-05-01 15:25 | 48.44772 | -52.21735 | 34314 ft | 475 kts | 251° |
| 2026-05-01 15:25 | 48.42537 | -52.31018 | 34312 ft | 476 kts | 251° |
| 2026-05-01 15:26 | 48.40270 | -52.40387 | 34314 ft | 476 kts | 251° |
| 2026-05-01 15:26 | 48.38012 | -52.49666 | 34307 ft | 475 kts | 251° |
| 2026-05-01 15:27 | 48.35739 | -52.58962 | 34311 ft | 474 kts | 251° |
| 2026-05-01 15:28 | 48.32318 | -52.72881 | 34310 ft | 474 kts | 250° |
| 2026-05-01 15:28 | 48.30038 | -52.82108 | 34311 ft | 474 kts | 250° |
| 2026-05-01 15:29 | 48.26598 | -52.95955 | 34307 ft | 473 kts | 250° |
| 2026-05-01 15:30 | 48.22001 | -53.14331 | 34300 ft | 473 kts | 249° |
| 2026-05-01 15:31 | 48.15055 | -53.41814 | 34278 ft | 471 kts | 249° |
| 2026-05-01 15:32 | 48.10403 | -53.60033 | 34273 ft | 467 kts | 249° |
| 2026-05-01 15:34 | 48.03393 | -53.87220 | 34257 ft | 467 kts | 248° |